Latest Weather Observations for Cape Nelson

IDV60801

Issued at 8:05 am EDT Saturday 29 November 2014 (issued every 30 minutes, with the page automatically refreshed every 10 minutes)

About weather observations | Map of weather stations | Latest weather observations for VIC | Other Formats
Station Details ID: 090184 Name: CAPE NELSON LIGHTHOUSE Lat: -38.43 Lon: 141.54 Height: 45.4 m
Data from the previous 72 hours. | See also: Recent months at Cape Nelson
Date/Time
EDT
Temp
°C
App
Temp
°C
Dew
Point
Rel
Hum
%
Delta-T
°C
Wind Press
QNH
hPa
Press
MSL
hPa
Rain
since 9 am
mm
Dir
 
Spd
km/h
Gust
km/h
Spd
kts
Gust
kts
29/08:00am 14.0 9.4 11.2 83 1.5 E 26 41 14 22 1016.5 1016.5 0.0
29/07:30am 13.3 8.3 11.0 86 1.2 E 28 37 15 20 1016.5 1016.5 0.0
29/07:16am 13.4 7.6 10.9 85 1.3 E 32 50 17 27 1016.4 1016.4 0.0
29/07:00am 13.3 6.2 10.8 85 1.3 E 39 52 21 28 1016.4 1016.4 0.0
29/06:30am 13.2 6.8 10.6 84 1.4 E 35 48 19 26 1016.2 1016.2 0.0
29/06:00am 13.3 8.4 11.2 87 1.1 E 28 41 15 22 1016.2 1016.2 0.0
29/05:30am 13.6 7.7 11.1 85 1.3 E 33 48 18 26 1016.2 1016.2 0.0
29/05:00am 13.4 6.9 10.4 82 1.6 E 35 50 19 27 1016.3 1016.3 0.0
29/04:30am 13.5 6.7 10.7 83 1.5 E 37 52 20 28 1016.4 1016.4 0.0
29/04:00am 13.5 6.7 10.7 83 1.5 E 37 46 20 25 1016.7 1016.7 0.0
29/03:30am 13.7 7.1 11.2 85 1.3 E 37 46 20 25 1016.9 1016.9 0.0
29/03:00am 13.5 7.2 11.0 85 1.3 E 35 46 19 25 1017.1 1017.1 0.0
29/02:30am 13.3 6.9 10.8 85 1.3 E 35 44 19 24 1017.6 1017.6 0.0
29/02:00am 13.3 6.1 10.7 84 1.4 E 39 50 21 27 1017.9 1017.9 0.0
29/01:30am 13.4 6.3 10.8 84 1.4 E 39 46 21 25 1018.2 1018.2 0.0
29/01:00am 13.2 5.9 10.2 82 1.6 E 39 46 21 25 1018.5 1018.5 0.0
29/12:30am 13.4 6.6 10.6 83 1.5 E 37 46 20 25 1019.0 1019.0 0.0
29/12:00am 13.2 6.2 10.0 81 1.6 E 37 46 20 25 1019.2 1019.2 0.0
 
Date/Time
EDT
Temp
°C
App
Temp
°C
Dew
Point
Rel
Hum
%
Delta-T
°C
Wind Press
QNH
hPa
Press
MSL
hPa
Rain
since 9 am
mm
Dir
 
Spd
km/h
Gust
km/h
Spd
kts
Gust
kts
28/11:30pm 13.2 5.8 9.8 80 1.7 E 39 46 21 25 1019.5 1019.5 0.0
28/11:00pm 13.1 5.7 9.7 80 1.7 E 39 46 21 25 1019.8 1019.8 0.0
28/10:30pm 13.6 8.1 10.4 81 1.7 E 30 39 16 21 1020.3 1020.3 0.0
28/10:00pm 13.3 8.7 9.7 79 1.8 ESE 24 41 13 22 1020.4 1020.4 0.0
28/09:30pm 13.4 8.5 10.0 80 1.8 ESE 26 37 14 20 1020.4 1020.4 0.0
28/09:00pm 13.3 8.7 9.7 79 1.8 ESE 24 39 13 21 1020.4 1020.4 0.0
28/08:30pm 13.4 8.8 9.5 77 2.0 ESE 24 35 13 19 1020.5 1020.5 0.0
28/08:00pm 13.8 8.7 9.3 74 2.3 ESE 26 35 14 19 1020.6 1020.6 0.0
28/07:30pm 13.7 8.6 9.2 74 2.3 ESE 26 37 14 20 1020.5 1020.5 0.0
28/07:00pm 14.2 9.1 9.2 72 2.5 ESE 26 41 14 22 1020.4 1020.4 0.0
28/06:30pm 14.8 10.2 9.8 72 2.6 ESE 24 35 13 19 1020.3 1020.3 0.0
28/06:00pm 15.1 10.6 9.9 71 2.7 ESE 24 35 13 19 1020.4 1020.4 0.0
28/05:30pm 15.5 11.0 10.1 70 2.8 SE 24 39 13 21 1020.7 1020.7 0.0
28/05:00pm 15.4 10.3 9.3 67 3.1 SE 26 37 14 20 1020.5 1020.5 0.0
28/04:30pm 15.5 10.6 10.1 70 2.8 SE 26 41 14 22 1020.5 1020.5 0.0
28/04:00pm 15.8 10.9 10.1 69 3.0 SE 26 39 14 21 1020.7 1020.7 0.0
28/03:30pm 16.1 11.5 9.5 65 3.4 SE 24 41 13 22 1021.1 1021.1 0.0
28/03:00pm 16.3 11.7 9.7 65 3.4 ESE 24 35 13 19 1021.1 1021.1 0.0
28/02:30pm 16.1 11.8 9.5 65 3.4 ESE 22 35 12 19 1021.4 1021.4 0.0
28/02:00pm 16.1 11.2 9.8 66 3.3 E 26 39 14 21 1021.5 1021.5 0.0
28/01:30pm 15.9 9.6 8.9 63 3.6 E 32 41 17 22 1022.1 1022.1 0.0
28/01:00pm 16.4 10.2 9.3 63 3.7 E 32 43 17 23 1022.4 1022.4 0.0
28/12:30pm 15.9 9.6 8.9 63 3.6 E 32 39 17 21 1022.8 1022.8 0.0
28/12:00pm 15.4 9.8 8.6 64 3.4 E 28 35 15 19 1023.5 1023.5 0.0
28/11:30am 15.7 9.1 8.4 62 3.7 E 33 41 18 22 1023.1 1023.1 0.0
28/11:00am 15.2 9.3 8.9 66 3.2 E 30 35 16 19 1023.5 1023.5 0.0
28/10:30am 15.4 9.6 7.9 61 3.8 E 28 37 15 20 1024.0 1024.0 0.0
28/10:00am 14.7 8.6 8.4 66 3.2 E 30 37 16 20 1024.0 1024.0 0.0
28/09:30am 14.1 8.3 8.1 67 3.0 E 28 39 15 21 1024.3 1024.3 0.0
28/09:00am 13.5 7.7 7.9 69 2.8 E 28 35 15 19 1024.2 1024.2 0.0
28/08:30am 13.4 8.5 8.5 72 2.5 ESE 24 35 13 19 1024.2 1024.2 0.0
28/08:00am 13.1 6.9 8.0 71 2.5 E 30 43 16 23 1023.9 1023.9 0.0
28/07:30am 12.9 7.1 8.0 72 2.4 E 28 39 15 21 1023.9 1023.9 0.0
28/07:00am 12.8 7.0 7.9 72 2.4 E 28 37 15 20 1024.1 1024.1 0.0
28/06:30am 12.8 8.7 8.7 76 2.1 SE 20 30 11 16 1024.1 1024.1 0.0
28/06:00am 12.8 8.7 8.7 76 2.0 ESE 20 35 11 19 1023.7 1023.7 0.0
28/05:30am 12.9 8.5 8.8 76 2.1 SE 22 35 12 19 1023.6 1023.6 0.0
28/05:00am 12.9 8.5 9.0 77 2.0 ESE 22 33 12 18 1023.5 1023.5 0.0
28/04:30am 12.9 8.9 9.0 77 2.0 ESE 20 30 11 16 1023.3 1023.3 0.0
28/04:00am 13.0 8.3 9.1 77 2.0 E 24 32 13 17 1023.2 1023.2 0.0
28/03:30am 13.0 9.0 9.1 77 2.0 ESE 20 32 11 17 1023.3 1023.3 0.0
28/03:00am 13.1 9.4 9.4 78 1.9 ESE 19 28 10 15 1023.4 1023.4 0.0
28/02:30am 13.1 9.2 9.4 78 1.9 ESE 20 30 11 16 1023.6 1023.6 0.0
28/02:00am 12.9 8.9 9.0 77 2.0 ESE 20 32 11 17 1023.7 1023.7 0.0
28/01:30am 12.9 8.9 9.2 78 1.9 ESE 20 32 11 17 1023.8 1023.8 0.0
28/01:00am 13.0 8.7 9.4 79 1.8 ESE 22 32 12 17 1023.9 1023.9 0.0
28/12:30am 13.0 9.1 9.3 78 1.9 ESE 20 33 11 18 1024.4 1024.4 0.0
28/12:00am 13.0 8.3 9.4 79 1.8 E 24 35 13 19 1024.2 1024.2 0.0
 
Date/Time
EDT
Temp
°C
App
Temp
°C
Dew
Point
Rel
Hum
%
Delta-T
°C
Wind Press
QNH
hPa
Press
MSL
hPa
Rain
since 9 am
mm
Dir
 
Spd
km/h
Gust
km/h
Spd
kts
Gust
kts
27/11:30pm 12.9 7.4 9.2 78 1.9 E 28 39 15 21 1024.2 1024.2 0.0
27/11:00pm 13.1 8.4 9.4 78 1.9 ESE 24 37 13 20 1024.4 1024.4 0.0
27/10:30pm 13.0 8.7 9.3 78 1.9 ESE 22 32 12 17 1024.9 1024.9 0.0
27/10:00pm 12.8 8.8 8.9 77 2.0 ESE 20 30 11 16 1024.9 1024.9 0.0
27/09:30pm 12.8 8.3 8.7 76 2.1 ESE 22 35 12 19 1024.9 1024.9 0.0
27/09:00pm 13.0 8.2 8.7 75 2.1 ESE 24 35 13 19 1025.1 1025.1 0.0
27/08:30pm 13.2 8.8 8.9 75 2.2 ESE 22 35 12 19 1024.8 1024.8 0.0
27/08:00pm 13.3 9.2 8.6 73 2.3 ESE 20 32 11 17 1024.8 1024.8 0.0
27/07:30pm 13.5 8.9 8.1 70 2.7 E 22 30 12 16 1024.8 1024.8 0.0
27/07:00pm 14.1 9.6 8.7 70 2.7 E 22 33 12 18 1024.8 1024.8 0.0
27/06:30pm 14.3 9.4 8.3 67 3.0 SE 24 37 13 20 1024.8 1024.8 0.0
27/06:00pm 14.8 9.9 8.3 65 3.3 SE 24 33 13 18 1025.2 1025.2 0.0
27/05:30pm 14.9 10.4 8.4 65 3.3 ESE 22 35 12 19 1025.1 1025.1 0.0
27/05:00pm 15.1 10.5 8.1 63 3.5 SE 22 33 12 18 1025.4 1025.4 0.0
27/04:30pm 15.4 10.5 8.6 64 3.5 SE 24 37 13 20 1025.4 1025.4 0.0
27/04:00pm 15.4 10.7 7.9 61 3.7 SE 22 33 12 18 1025.7 1025.7 0.0
27/03:30pm 15.8 11.6 8.1 60 3.9 ESE 20 32 11 17 1025.9 1025.9 0.0
27/03:00pm 15.8 11.2 8.1 60 3.9 ESE 22 32 12 17 1026.1 1026.1 0.0
27/02:30pm 15.9 11.6 7.9 59 4.0 ESE 20 33 11 18 1026.1 1026.1 0.0
27/02:00pm 16.2 12.0 8.4 60 3.9 ESE 20 32 11 17 1026.3 1026.3 0.0
27/01:30pm 16.3 12.3 8.3 59 4.1 ESE 19 30 10 16 1026.4 1026.4 0.0
27/01:00pm 16.2 12.8 7.7 57 4.2 ESE 15 24 8 13 1026.8 1026.7 0.0
27/12:30pm 15.9 11.4 7.1 56 4.4 E 20 28 11 15 1027.0 1026.9 0.0
27/12:00pm 15.9 11.4 7.1 56 4.3 ESE 20 28 11 15 1027.0 1026.9 0.0
27/11:30am 15.8 11.3 6.8 55 4.4 ESE 20 28 11 15 1027.2 1027.1 0.0
27/11:00am 15.4 11.1 7.2 58 4.0 ESE 19 30 10 16 1027.2 1027.1 0.0
27/10:30am 15.1 10.4 7.6 61 3.7 ESE 22 32 12 17 1027.2 1027.1 0.0
27/10:00am 14.1 9.8 6.9 62 3.5 SE 19 32 10 17 1027.3 1027.2 0.0
27/09:30am 14.2 9.7 6.8 61 3.6 SE 20 30 11 16 1027.2 1027.1 0.0
27/09:00am 14.0 9.8 7.5 65 3.2 SE 19 28 10 15 1027.0 1026.9 0.2
27/08:30am 13.6 9.4 7.4 66 3.0 ESE 19 28 10 15 1026.9 1026.8 0.2
27/08:00am 12.9 8.5 6.5 65 3.0 SE 19 26 10 14 1026.7 1026.6 0.2
27/07:30am 12.9 8.4 6.9 67 2.9 ESE 20 32 11 17 1026.5 1026.5 0.2
27/07:00am 12.9 9.4 7.1 68 2.8 ESE 15 24 8 13 1026.3 1026.3 0.2
27/06:30am 12.6 8.5 6.2 65 3.0 ESE 17 26 9 14 1026.3 1026.3 0.2
27/06:00am 12.5 7.8 6.1 65 3.0 SSE 20 24 11 13 1025.9 1025.9 0.2
27/05:30am 12.6 8.5 6.0 64 3.1 ESE 17 28 9 15 1025.6 1025.6 0.2
27/05:00am 12.9 9.0 6.9 67 2.9 SE 17 24 9 13 1025.3 1025.3 0.2
27/04:30am 12.9 8.9 6.7 66 3.0 SE 17 30 9 16 1025.0 1025.0 0.2
27/04:00am 13.0 8.7 6.8 66 3.0 SE 19 28 10 15 1024.8 1024.8 0.2
27/03:30am 12.9 9.7 6.7 66 3.0 SE 13 17 7 9 1024.7 1024.7 0.2
27/03:00am 12.8 8.4 6.6 66 3.0 ESE 19 30 10 16 1024.7 1024.7 0.2
27/02:30am 12.8 8.8 6.6 66 3.0 SE 17 26 9 14 1024.8 1024.8 0.2
27/02:00am 12.7 9.0 6.3 65 3.0 SE 15 22 8 12 1025.1 1025.1 0.2
27/01:30am 12.9 8.4 6.9 67 2.9 SE 20 32 11 17 1025.2 1025.2 0.2
27/01:00am 12.8 8.4 6.6 66 3.0 SE 19 26 10 14 1025.4 1025.4 0.2
27/12:30am 12.8 8.7 6.4 65 3.1 SE 17 26 9 14 1025.6 1025.6 0.2
27/12:00am 12.8 8.3 6.2 64 3.1 SSE 19 32 10 17 1025.7 1025.7 0.2
 
Date/Time
EDT
Temp
°C
App
Temp
°C
Dew
Point
Rel
Hum
%
Delta-T
°C
Wind Press
QNH
hPa
Press
MSL
hPa
Rain
since 9 am
mm
Dir
 
Spd
km/h
Gust
km/h
Spd
kts
Gust
kts
26/11:30pm 12.8 7.3 5.7 62 3.3 SSE 24 33 13 18 1025.6 1025.6 0.2
26/11:00pm 13.0 7.5 5.9 62 3.3 SSE 24 33 13 18 1025.7 1025.7 0.2
26/10:30pm 13.2 8.5 6.1 62 3.4 SSE 20 33 11 18 1025.5 1025.5 0.2
26/10:00pm 13.0 8.3 5.9 62 3.3 SE 20 32 11 17 1025.2 1025.2 0.2
26/09:30pm 12.8 8.2 5.7 62 3.3 SSE 19 28 10 15 1024.9 1024.9 0.2
26/09:00pm 13.2 7.8 6.3 63 3.3 SSE 24 32 13 17 1024.8 1024.8 0.2
26/08:30pm 13.3 8.7 6.4 63 3.3 S 20 33 11 18 1024.7 1024.7 0.2
26/08:00pm 13.5 9.4 6.4 62 3.4 S 17 24 9 13 1024.7 1024.7 0.2
26/07:30pm 13.7 8.4 6.8 63 3.3 S 24 32 13 17 1024.4 1024.4 0.2
26/07:00pm 13.9 9.2 7.9 67 3.0 S 22 30 12 16 1024.3 1024.3 0.2
26/06:30pm 14.1 10.0 8.5 69 2.8 S 20 30 11 16 1023.9 1023.9 0.2
26/06:00pm 15.0 11.0 8.9 67 3.1 S 20 26 11 14 1023.9 1023.9 0.2
26/05:30pm 15.2 11.6 9.8 70 2.8 S 19 24 10 13 1023.8 1023.8 0.2
26/05:00pm 15.3 11.6 10.1 71 2.7 S 20 26 11 14 1023.7 1023.7 0.2
26/04:30pm 15.5 12.1 11.1 75 2.4 S 20 26 11 14 1023.7 1023.7 0.2
26/04:00pm 15.6 12.0 10.6 72 2.6 S 20 28 11 15 1023.7 1023.7 0.2
26/03:30pm 16.3 13.0 11.5 73 2.6 S 20 26 11 14 1023.5 1023.5 0.2
26/03:00pm 15.3 12.2 12.1 81 1.7 S 20 28 11 15 1023.5 1023.5 0.2
26/02:30pm 15.1 12.1 12.4 84 1.5 S 20 32 11 17 1023.6 1023.6 0.2
26/02:00pm 14.2 10.9 12.9 92 0.7 S 22 32 12 17 1023.5 1023.5 0.2
26/01:30pm 14.9 13.3 13.8 93 0.6 S 15 24 8 13 1023.3 1023.3 0.2
26/01:00pm 15.8 13.8 12.7 82 1.7 NNE 15 26 8 14 1023.2 1023.2 0.0
26/12:30pm 14.8 10.5 12.1 84 1.5 W 26 35 14 19 1023.2 1023.2 0.0
26/12:00pm 15.5 11.3 12.3 81 1.7 W 26 35 14 19 1023.1 1023.1 0.0
26/11:30am 15.6 12.1 12.2 80 1.9 W 22 35 12 19 1023.0 1023.0 0.0
26/11:00am 15.0 11.0 11.8 81 1.7 W 24 35 13 19 1022.8 1022.8 0.0
26/10:30am 15.2 10.4 11.8 80 1.8 W 28 41 15 22 1022.6 1022.6 0.0
26/10:00am 14.8 9.8 11.0 78 2.0 W 28 35 15 19 1022.5 1022.5 0.0
26/09:30am 15.1 11.1 11.7 80 1.8 W 24 33 13 18 1022.2 1022.2 0.0
26/09:00am 14.8 11.3 11.0 78 2.0 W 20 33 11 18 1021.9 1021.9 0.2
26/08:30am 14.5 10.0 11.5 82 1.6 W 26 35 14 19 1021.7 1021.7 0.2

Other Formats:

Comma delimited format used in spreadsheet applications
http://www.bom.gov.au/fwo/IDV60801/IDV60801.94826.axf

JavaScript Object Notation format (JSON) in row-major order
http://www.bom.gov.au/fwo/IDV60801/IDV60801.94826.json